createdAt,value
2022-11-18T00:01:32.144Z,87.40
2022-11-18T00:03:59.371Z,87.60
2022-11-18T00:06:34.219Z,87.60
2022-11-18T00:09:00.987Z,88.00
2022-11-18T00:11:47.231Z,87.60
2022-11-18T00:14:24.211Z,88.20
2022-11-18T00:20:20.454Z,88.20
2022-11-18T00:22:47.198Z,88.40
2022-11-18T00:25:14.258Z,89.40
2022-11-18T00:27:40.432Z,89.20
2022-11-18T00:30:08.354Z,89.90
2022-11-18T00:32:34.545Z,89.30
2022-11-18T00:35:01.061Z,88.80
2022-11-18T00:37:27.948Z,89.10
2022-11-18T00:39:54.486Z,89.40
2022-11-18T00:42:40.052Z,88.80
2022-11-18T00:45:07.438Z,88.40
2022-11-18T00:47:34.441Z,88.50
2022-11-18T00:50:00.642Z,88.40
2022-11-18T00:52:26.797Z,88.80
2022-11-18T00:54:53.849Z,89.10
2022-11-18T00:57:20.598Z,88.60
2022-11-18T00:59:47.595Z,89.10
2022-11-18T01:02:14.072Z,89.00
2022-11-18T01:04:40.198Z,89.70
2022-11-18T01:07:06.880Z,89.50
2022-11-18T01:09:33.663Z,88.90
2022-11-18T01:12:18.778Z,88.90
2022-11-18T01:14:45.074Z,88.80
2022-11-18T01:17:11.345Z,88.40
2022-11-18T01:19:38.449Z,88.90
2022-11-18T01:22:05.145Z,89.00
2022-11-18T01:24:34.295Z,88.90
2022-11-18T01:27:02.317Z,88.80
2022-11-18T01:29:29.045Z,88.80
2022-11-18T01:32:22.620Z,89.30
2022-11-18T01:34:51.708Z,89.10
2022-11-18T01:37:17.905Z,89.30
2022-11-18T01:39:44.054Z,89.10
2022-11-18T01:42:16.587Z,89.00
2022-11-18T01:45:08.669Z,89.40
2022-11-18T01:48:02.778Z,89.20
2022-11-18T01:50:30.067Z,88.80
2022-11-18T01:52:59.479Z,88.70
2022-11-18T01:55:28.069Z,88.80
2022-11-18T01:57:59.547Z,89.50
2022-11-18T02:00:26.329Z,89.10
2022-11-18T02:02:53.488Z,88.90
2022-11-18T02:05:19.795Z,89.10
2022-11-18T02:07:47.187Z,89.10
2022-11-18T02:10:20.778Z,88.50
2022-11-18T02:12:49.452Z,88.50
2022-11-18T02:15:17.406Z,88.90
2022-11-18T02:21:21.554Z,89.00
2022-11-18T02:24:24.640Z,88.70
2022-11-18T02:33:44.063Z,88.60
2022-11-18T02:36:16.457Z,88.90
2022-11-18T02:38:45.948Z,89.00
2022-11-18T02:41:17.595Z,89.20
2022-11-18T02:43:46.993Z,89.70
2022-11-18T02:46:15.883Z,88.90
2022-11-18T02:48:45.793Z,89.20
2022-11-18T02:51:11.939Z,89.40
2022-11-18T02:53:39.141Z,89.30
2022-11-18T02:56:05.371Z,89.30
2022-11-18T02:58:32.083Z,89.70
2022-11-18T03:01:00.247Z,89.70
2022-11-18T03:03:34.026Z,89.70
2022-11-18T03:06:45.883Z,90.20
2022-11-18T03:10:12.430Z,89.10
2022-11-18T03:16:29.558Z,89.20
2022-11-18T03:19:09.236Z,89.60
2022-11-18T03:21:39.739Z,90.00
2022-11-18T03:24:30.069Z,89.70
2022-11-18T03:27:13.219Z,90.00
2022-11-18T03:29:44.477Z,90.00
2022-11-18T03:32:13.814Z,90.30
2022-11-18T03:34:43.060Z,90.20
2022-11-18T03:37:11.102Z,90.40
2022-11-18T03:39:40.993Z,90.10
2022-11-18T03:42:26.890Z,90.30
2022-11-18T03:44:58.277Z,90.30
2022-11-18T03:47:46.664Z,90.30
2022-11-18T03:50:21.672Z,90.30
2022-11-18T03:52:49.904Z,90.50
2022-11-18T03:55:19.002Z,90.50
2022-11-18T03:58:39.784Z,90.40
2022-11-18T04:01:18.521Z,90.70
2022-11-18T04:03:45.103Z,90.70
2022-11-18T04:06:38.914Z,90.70
2022-11-18T04:09:09.630Z,90.50
2022-11-18T04:12:01.682Z,90.60
2022-11-18T04:14:32.668Z,90.40
2022-11-18T04:16:58.864Z,90.60
2022-11-18T04:19:25.418Z,90.60
2022-11-18T04:21:53.045Z,90.60
2022-11-18T04:24:19.248Z,90.60
2022-11-18T04:26:45.463Z,90.50
2022-11-18T04:29:11.936Z,90.30
2022-11-18T04:31:38.771Z,90.20
2022-11-18T04:34:05.253Z,90.30
2022-11-18T04:36:34.983Z,90.50
2022-11-18T04:39:01.625Z,90.30
2022-11-18T04:41:47.557Z,90.60
2022-11-18T04:44:14.178Z,90.30
2022-11-18T04:46:42.351Z,90.20
2022-11-18T04:49:10.466Z,90.10
2022-11-18T04:51:36.878Z,90.30
2022-11-18T04:54:03.771Z,90.00
2022-11-18T04:56:30.818Z,90.20
2022-11-18T04:59:00.008Z,90.00
2022-11-18T05:01:27.434Z,89.40
2022-11-18T05:03:54.396Z,89.30
2022-11-18T05:06:21.371Z,89.40
2022-11-18T05:08:47.587Z,89.40
2022-11-18T05:11:34.227Z,89.70
2022-11-18T05:14:00.390Z,90.00
2022-11-18T05:16:26.632Z,89.20
2022-11-18T05:18:52.807Z,89.10
2022-11-18T05:21:20.009Z,89.40
2022-11-18T05:23:46.789Z,88.90
2022-11-18T05:26:13.044Z,89.10
2022-11-18T05:28:39.373Z,89.40
2022-11-18T05:31:10.910Z,89.00
2022-11-18T05:33:38.327Z,88.40
2022-11-18T05:36:09.073Z,88.20
2022-11-18T05:38:35.388Z,88.30
2022-11-18T05:41:01.951Z,88.20
2022-11-18T05:43:31.058Z,87.80
2022-11-18T05:45:57.414Z,88.30
2022-11-18T05:48:24.328Z,87.50
2022-11-18T05:50:52.235Z,87.60
2022-11-18T05:53:21.185Z,87.80
2022-11-18T05:56:18.089Z,87.70
2022-11-18T05:58:44.589Z,88.10
2022-11-18T06:01:11.038Z,88.80
2022-11-18T06:03:39.925Z,88.10
2022-11-18T06:06:08.400Z,87.40
2022-11-18T06:08:39.023Z,88.40
2022-11-18T06:11:06.509Z,88.00
2022-11-18T06:13:44.454Z,87.70
2022-11-18T06:16:12.580Z,88.00
2022-11-18T06:18:39.997Z,87.30
2022-11-18T06:21:06.510Z,87.70
2022-11-18T06:23:37.623Z,86.40
2022-11-18T06:26:04.822Z,86.40
2022-11-18T06:28:33.891Z,86.70
2022-11-18T06:31:01.149Z,87.20
2022-11-18T06:33:27.370Z,87.30
2022-11-18T06:35:54.132Z,88.00
2022-11-18T06:38:24.440Z,87.40
2022-11-18T06:40:51.785Z,87.00
2022-11-18T06:43:37.896Z,86.90
2022-11-18T06:46:25.063Z,87.40
2022-11-18T06:48:52.087Z,87.20
2022-11-18T06:51:19.059Z,87.30
2022-11-18T06:53:45.413Z,87.30
2022-11-18T06:56:14.422Z,87.80
2022-11-18T06:58:41.288Z,87.40
2022-11-18T07:01:18.270Z,87.00
2022-11-18T07:03:45.636Z,85.80
2022-11-18T07:06:13.472Z,86.20
2022-11-18T07:08:41.222Z,86.10
2022-11-18T07:11:10.639Z,86.00
2022-11-18T07:13:42.184Z,86.10
2022-11-18T07:16:15.792Z,86.10
2022-11-18T07:18:42.931Z,86.10
2022-11-18T07:21:18.269Z,85.70
2022-11-18T07:23:44.527Z,86.20
2022-11-18T07:26:10.873Z,85.30
2022-11-18T07:28:37.998Z,85.70
2022-11-18T07:31:11.848Z,85.60
2022-11-18T07:33:39.448Z,85.80
2022-11-18T07:36:08.534Z,85.30
2022-11-18T07:38:34.844Z,85.20
2022-11-18T07:41:12.262Z,85.10
2022-11-18T07:43:38.550Z,92.50
2022-11-18T07:46:23.038Z,85.10
2022-11-18T07:48:51.030Z,83.80
2022-11-18T07:51:21.025Z,83.70
2022-11-18T07:53:48.363Z,84.00
2022-11-18T07:56:15.893Z,83.20
2022-11-18T07:58:42.302Z,83.10
2022-11-18T08:01:18.827Z,83.00
2022-11-18T08:03:46.288Z,83.30
2022-11-18T08:06:14.680Z,82.00
2022-11-18T08:08:41.708Z,81.70
2022-11-18T08:11:10.616Z,83.30
2022-11-18T08:13:37.749Z,82.90
2022-11-18T08:16:04.624Z,82.20
2022-11-18T08:18:32.476Z,82.70
2022-11-18T08:21:03.914Z,82.10
2022-11-18T08:23:34.028Z,81.80
2022-11-18T08:26:20.521Z,80.70
2022-11-18T08:28:48.178Z,80.30
2022-11-18T08:31:24.457Z,81.20
2022-11-18T08:34:01.584Z,80.30
2022-11-18T08:36:29.911Z,80.20
2022-11-18T08:38:58.132Z,79.80
2022-11-18T08:41:36.154Z,80.30
2022-11-18T08:44:02.703Z,80.60
2022-11-18T08:46:29.853Z,79.60
2022-11-18T08:48:57.165Z,79.10
2022-11-18T08:51:23.412Z,78.70
2022-11-18T08:53:50.090Z,79.40
2022-11-18T08:56:18.673Z,79.10
2022-11-18T08:58:46.450Z,80.00
2022-11-18T09:01:13.457Z,79.70
2022-11-18T09:03:40.313Z,79.50
2022-11-18T09:06:12.082Z,80.20
2022-11-18T09:08:39.543Z,79.50
2022-11-18T09:11:11.456Z,80.00
2022-11-18T09:14:04.321Z,79.80
2022-11-18T09:16:49.317Z,79.30
2022-11-18T09:19:45.444Z,78.70
2022-11-18T09:22:13.336Z,79.00
2022-11-18T09:24:40.210Z,79.00
2022-11-18T09:27:12.160Z,79.20
2022-11-18T09:29:42.139Z,78.30
2022-11-18T09:32:08.790Z,78.70
2022-11-18T09:34:35.806Z,78.30
2022-11-18T09:37:06.868Z,77.40
2022-11-18T09:39:36.613Z,77.90
2022-11-18T09:42:24.949Z,77.50
2022-11-18T09:45:46.568Z,77.10
2022-11-18T09:48:18.509Z,77.30
2022-11-18T09:50:49.984Z,77.50
2022-11-18T09:53:21.610Z,77.90
2022-11-18T09:55:48.969Z,76.30
2022-11-18T09:58:37.988Z,76.20
2022-11-18T10:01:13.420Z,75.50
2022-11-18T10:03:40.441Z,76.30
2022-11-18T10:06:29.442Z,75.40
2022-11-18T10:11:08.371Z,76.40
2022-11-18T10:19:05.106Z,74.60
2022-11-18T10:22:16.956Z,74.60
2022-11-18T10:24:51.380Z,75.00
2022-11-18T10:27:18.956Z,75.60
2022-11-18T10:29:49.230Z,75.70
2022-11-18T10:32:17.577Z,74.40
2022-11-18T10:34:51.975Z,74.60
2022-11-18T10:37:52.991Z,74.60
2022-11-18T10:40:34.219Z,74.40
2022-11-18T10:43:00.822Z,73.40
2022-11-18T10:45:29.830Z,74.10
2022-11-18T10:48:19.634Z,74.00
2022-11-18T10:50:55.262Z,72.30
2022-11-18T10:53:35.831Z,73.30
2022-11-18T10:56:09.377Z,73.80
2022-11-18T10:58:43.065Z,74.30
2022-11-18T11:01:43.830Z,73.80
2022-11-18T11:04:24.317Z,74.40
2022-11-18T11:06:50.912Z,73.70
2022-11-18T11:09:29.609Z,74.70
2022-11-18T11:12:13.291Z,74.00
2022-11-18T11:14:57.464Z,74.90
2022-11-18T11:17:46.596Z,75.70
2022-11-18T11:20:23.649Z,75.00
2022-11-18T11:22:49.958Z,74.00
2022-11-18T11:30:20.405Z,76.10
2022-11-18T11:34:11.694Z,75.60
2022-11-18T11:39:30.800Z,76.00
2022-11-18T11:42:16.385Z,76.50
2022-11-18T11:45:29.618Z,75.80
2022-11-18T11:50:07.104Z,77.00
2022-11-18T11:55:31.237Z,77.70
2022-11-18T11:58:22.307Z,78.50
2022-11-18T12:01:01.774Z,78.90
2022-11-18T12:04:51.750Z,78.30
2022-11-18T12:07:30.405Z,79.00
2022-11-18T12:10:31.972Z,79.70
2022-11-18T12:14:02.250Z,79.70
2022-11-18T12:16:41.993Z,79.70
2022-11-18T12:19:16.457Z,80.70
2022-11-18T12:22:06.610Z,80.40
2022-11-18T12:24:41.925Z,81.00
2022-11-18T12:28:15.563Z,80.30
2022-11-18T12:30:43.503Z,80.90
2022-11-18T12:33:12.306Z,80.60
2022-11-18T12:35:40.062Z,81.60
2022-11-18T12:38:12.576Z,81.60
2022-11-18T12:40:47.416Z,81.40
2022-11-18T12:46:49.197Z,81.30
2022-11-18T12:50:11.123Z,81.80
2022-11-18T12:52:46.726Z,81.50
2022-11-18T12:55:25.141Z,81.70
2022-11-18T12:57:53.115Z,81.20
2022-11-18T13:00:30.429Z,80.90
2022-11-18T13:03:00.112Z,80.90
2022-11-18T13:05:33.935Z,80.60
2022-11-18T13:08:15.165Z,80.80
2022-11-18T13:11:44.020Z,80.50
2022-11-18T13:15:03.051Z,80.30
2022-11-18T13:17:53.791Z,79.30
2022-11-18T13:20:31.369Z,79.50
2022-11-18T13:23:21.192Z,78.30
2022-11-18T13:25:48.784Z,78.90
2022-11-18T13:32:48.214Z,78.10
2022-11-18T13:35:19.118Z,78.20
2022-11-18T13:37:57.960Z,78.60
2022-11-18T13:40:27.991Z,78.60
2022-11-18T13:42:55.374Z,77.30
2022-11-18T13:45:25.875Z,77.20
2022-11-18T13:48:08.402Z,77.40
2022-11-18T13:50:40.866Z,77.90
2022-11-18T13:53:44.145Z,76.20
2022-11-18T13:56:33.328Z,75.90
2022-11-18T13:59:29.162Z,76.70
2022-11-18T14:01:59.475Z,78.00
2022-11-18T14:04:28.661Z,77.90
2022-11-18T14:07:16.377Z,77.10
2022-11-18T14:09:54.458Z,77.30
2022-11-18T14:12:25.598Z,77.70
2022-11-18T14:14:53.199Z,76.60
2022-11-18T14:17:29.918Z,76.80
2022-11-18T14:19:57.939Z,76.40
2022-11-18T14:22:28.897Z,77.70
2022-11-18T14:24:58.386Z,77.30
2022-11-18T14:27:55.954Z,78.00
2022-11-18T14:30:41.043Z,76.20
2022-11-18T14:33:19.929Z,76.80
2022-11-18T14:36:30.109Z,77.20
2022-11-18T14:39:25.052Z,79.10
2022-11-18T14:41:58.635Z,79.40
2022-11-18T14:44:27.262Z,79.50
2022-11-18T14:47:04.875Z,79.90
2022-11-18T14:49:33.559Z,81.20
2022-11-18T14:52:02.045Z,81.00
2022-11-18T14:54:29.285Z,81.70
2022-11-18T14:57:04.183Z,81.20
2022-11-18T14:59:31.576Z,81.90
2022-11-18T15:02:00.856Z,82.50
2022-11-18T15:04:29.254Z,83.20
2022-11-18T15:06:56.092Z,83.60
2022-11-18T15:09:23.309Z,83.80
2022-11-18T15:11:51.344Z,83.80
2022-11-18T15:14:18.095Z,84.70
2022-11-18T15:16:46.229Z,85.40
2022-11-18T15:19:14.445Z,85.30
2022-11-18T15:21:42.938Z,85.90
2022-11-18T15:24:09.691Z,86.10
2022-11-18T15:26:39.579Z,86.50
2022-11-18T15:29:13.895Z,87.70
2022-11-18T15:31:41.660Z,87.50
2022-11-18T15:34:07.806Z,89.20
2022-11-18T15:36:36.478Z,88.60
2022-11-18T15:39:03.983Z,87.80
2022-11-18T15:41:31.028Z,88.00
2022-11-18T15:43:59.446Z,88.90
2022-11-18T15:46:26.554Z,88.50
2022-11-18T15:48:57.864Z,87.60
2022-11-18T15:51:25.357Z,88.00
2022-11-18T15:53:52.339Z,89.00
2022-11-18T15:56:30.099Z,89.50
2022-11-18T15:59:00.762Z,90.20
2022-11-18T16:01:28.978Z,90.10
2022-11-18T16:03:55.542Z,90.30
2022-11-18T16:06:22.249Z,89.80
2022-11-18T16:08:59.558Z,89.60
2022-11-18T16:11:47.808Z,89.20
2022-11-18T16:14:17.580Z,88.70
2022-11-18T16:16:47.055Z,89.10
2022-11-18T16:19:16.455Z,90.00
2022-11-18T16:21:46.314Z,90.30
2022-11-18T16:24:20.698Z,90.40
2022-11-18T16:26:48.558Z,90.60
2022-11-18T16:29:16.175Z,90.70
2022-11-18T16:31:49.948Z,91.00
2022-11-18T16:34:50.841Z,91.20
2022-11-18T16:37:17.678Z,91.10
2022-11-18T16:39:46.347Z,91.20
2022-11-18T16:42:14.035Z,91.10
2022-11-18T16:44:41.889Z,91.90
2022-11-18T16:47:14.271Z,92.20
2022-11-18T16:49:44.294Z,92.20
2022-11-18T16:52:12.712Z,92.20
2022-11-18T16:54:45.949Z,92.20
2022-11-18T16:57:12.796Z,92.20
2022-11-18T16:59:40.060Z,91.90
2022-11-18T17:02:07.789Z,91.70
2022-11-18T17:04:37.142Z,91.70
2022-11-18T17:07:04.273Z,92.70
2022-11-18T17:09:31.700Z,92.70
2022-11-18T17:11:58.153Z,92.60
2022-11-18T17:14:25.076Z,92.70
2022-11-18T17:16:53.283Z,92.20
2022-11-18T17:19:27.119Z,92.40
2022-11-18T17:21:55.147Z,92.70
2022-11-18T17:24:22.645Z,92.50
2022-11-18T17:26:52.154Z,91.80
2022-11-18T17:29:19.765Z,92.30
2022-11-18T17:31:48.330Z,92.30
2022-11-18T17:34:15.617Z,91.60
2022-11-18T17:36:44.267Z,91.90
2022-11-18T17:39:11.417Z,90.60
2022-11-18T17:41:58.373Z,90.30
2022-11-18T17:44:26.546Z,90.90
2022-11-18T17:46:54.359Z,90.30
2022-11-18T17:49:22.545Z,90.60
2022-11-18T17:51:52.552Z,90.50
2022-11-18T17:54:20.002Z,90.90
2022-11-18T17:56:47.237Z,90.40
2022-11-18T17:59:16.196Z,90.30
2022-11-18T18:01:44.419Z,90.00
2022-11-18T18:04:21.172Z,90.20
2022-11-18T18:06:54.437Z,90.70
2022-11-18T18:09:28.512Z,90.30
2022-11-18T18:11:57.837Z,90.50
2022-11-18T18:14:25.582Z,90.00
2022-11-18T18:16:52.145Z,90.40
2022-11-18T18:19:20.252Z,90.10
2022-11-18T18:21:49.303Z,90.30
2022-11-18T18:24:18.818Z,89.80
2022-11-18T18:26:45.962Z,90.10
2022-11-18T18:29:12.512Z,90.00
2022-11-18T18:31:41.398Z,89.90
2022-11-18T18:34:10.457Z,89.60
2022-11-18T18:36:38.048Z,89.40
2022-11-18T18:39:06.136Z,90.00
2022-11-18T18:41:34.462Z,89.70
2022-11-18T18:44:01.280Z,89.30
2022-11-18T18:46:28.553Z,89.60
2022-11-18T18:49:17.916Z,89.80
2022-11-18T18:51:49.875Z,88.80
2022-11-18T18:54:18.625Z,88.90
2022-11-18T18:56:45.963Z,87.50
2022-11-18T18:59:13.938Z,87.60
2022-11-18T19:01:40.986Z,87.20
2022-11-18T19:04:10.770Z,87.90
2022-11-18T19:09:38.858Z,88.00
2022-11-18T19:12:27.801Z,88.10
2022-11-18T19:14:57.339Z,86.20
2022-11-18T19:17:25.176Z,86.80
2022-11-18T19:20:13.232Z,86.60
2022-11-18T19:22:40.857Z,86.70
2022-11-18T19:25:09.253Z,86.90
2022-11-18T19:27:45.022Z,87.50
2022-11-18T19:30:14.172Z,86.00
2022-11-18T19:32:41.961Z,85.70
2022-11-18T19:35:13.847Z,85.90
2022-11-18T19:37:43.818Z,86.20
2022-11-18T19:40:13.716Z,86.20
2022-11-18T19:42:52.250Z,89.00
2022-11-18T19:45:23.420Z,86.40
2022-11-18T19:47:51.456Z,87.10
2022-11-18T19:50:19.744Z,87.10
2022-11-18T19:52:51.253Z,87.40
2022-11-18T19:55:21.609Z,87.20
2022-11-18T19:57:51.976Z,87.20
2022-11-18T20:00:26.181Z,88.30
2022-11-18T20:02:56.093Z,86.90
2022-11-18T20:05:47.116Z,86.20
2022-11-18T20:08:20.529Z,85.70
2022-11-18T20:10:49.721Z,85.50
2022-11-18T20:13:17.492Z,85.20
2022-11-18T20:15:44.227Z,86.10
2022-11-18T20:18:12.341Z,85.60
2022-11-18T20:20:42.101Z,85.70
2022-11-18T20:23:12.672Z,85.70
2022-11-18T20:25:46.803Z,85.70
2022-11-18T20:28:15.443Z,85.40
2022-11-18T20:30:54.754Z,85.40
2022-11-18T20:33:24.494Z,85.90
2022-11-18T20:35:56.644Z,85.40
2022-11-18T20:38:24.161Z,84.20
2022-11-18T20:40:53.679Z,85.10
2022-11-18T20:43:22.341Z,84.20
2022-11-18T20:45:57.731Z,84.10
2022-11-18T20:48:26.893Z,85.30
2022-11-18T20:50:55.339Z,85.40
2022-11-18T20:53:38.174Z,85.80
2022-11-18T20:56:10.688Z,85.70
2022-11-18T20:58:38.352Z,85.30
2022-11-18T21:01:22.746Z,86.60
2022-11-18T21:03:58.822Z,85.20
2022-11-18T21:06:28.385Z,85.30
2022-11-18T21:08:58.657Z,85.20
2022-11-18T21:11:28.983Z,84.70
2022-11-18T21:14:21.566Z,84.30
2022-11-18T21:17:03.471Z,83.20
2022-11-18T21:19:33.660Z,82.30
2022-11-18T21:22:02.493Z,81.60
2022-11-18T21:24:33.534Z,81.20
2022-11-18T21:27:04.084Z,80.60
2022-11-18T21:29:32.145Z,80.10
2022-11-18T21:32:02.524Z,79.20
2022-11-18T21:34:31.185Z,79.40
2022-11-18T21:36:58.919Z,80.00
2022-11-18T21:39:40.863Z,80.40
2022-11-18T21:42:07.890Z,79.60
2022-11-18T21:44:36.415Z,78.60
2022-11-18T21:47:03.012Z,79.10
2022-11-18T21:49:30.025Z,78.80
2022-11-18T21:51:59.285Z,77.90
2022-11-18T21:54:26.573Z,79.40
2022-11-18T21:56:53.403Z,78.90
2022-11-18T21:59:22.194Z,79.70
2022-11-18T22:01:50.483Z,79.70
2022-11-18T22:04:37.501Z,79.80
2022-11-18T22:07:05.624Z,80.10
2022-11-18T22:09:36.733Z,81.80
2022-11-18T22:12:05.449Z,80.00
2022-11-18T22:14:33.371Z,80.00
2022-11-18T22:17:00.534Z,79.50
2022-11-18T22:19:28.175Z,80.20
2022-11-18T22:21:55.684Z,79.80
2022-11-18T22:24:21.953Z,79.40
2022-11-18T22:26:48.823Z,80.50
2022-11-18T22:29:16.461Z,80.60
2022-11-18T22:31:45.569Z,80.20
2022-11-18T22:34:12.307Z,80.70
2022-11-18T22:36:40.447Z,80.90
2022-11-18T22:39:07.871Z,80.70
2022-11-18T22:41:54.425Z,81.10
2022-11-18T22:44:20.935Z,80.60
2022-11-18T22:46:48.325Z,81.40
2022-11-18T22:49:15.786Z,81.00
2022-11-18T22:51:43.637Z,80.80
2022-11-18T22:57:09.693Z,81.10
2022-11-18T22:59:38.793Z,81.90
2022-11-18T23:02:06.438Z,82.50
2022-11-18T23:04:33.652Z,82.10
2022-11-18T23:07:01.813Z,82.10
2022-11-18T23:09:32.706Z,81.90
2022-11-18T23:12:17.754Z,82.70
2022-11-18T23:14:45.429Z,82.10
2022-11-18T23:17:11.858Z,81.80
2022-11-18T23:19:42.939Z,81.60
2022-11-18T23:22:12.107Z,82.20
2022-11-18T23:24:38.764Z,83.40
2022-11-18T23:27:06.487Z,81.70
2022-11-18T23:29:33.389Z,82.30
2022-11-18T23:32:00.278Z,83.00
2022-11-18T23:34:26.693Z,83.50
2022-11-18T23:36:54.377Z,82.90
2022-11-18T23:39:21.144Z,83.80
2022-11-18T23:41:49.026Z,82.70
2022-11-18T23:44:15.636Z,82.70
2022-11-18T23:46:43.312Z,82.90
2022-11-18T23:49:10.638Z,83.10
2022-11-18T23:51:38.086Z,83.60
2022-11-18T23:54:05.540Z,83.40
2022-11-18T23:56:37.534Z,82.60
2022-11-18T23:59:05.954Z,83.10
